Time;durP1;ratioP1;P1;durP2;ratioP2;P2;SDS_P1;SDS_P2;PMS_P1;PMS_P2;Temp;Humidity;BMP_temperature;BMP_pressure;BME280_temperature;BME280_humidity;BME280_pressure;Samples;Min_cycle;Max_cycle;Signal;HPM_P1;HPM_P2
2021/04/08 00:01:20;;;;;;;2.23;1.40;;;3.20;99.90;;;;;;5054310;28;20633;-77
2021/04/08 00:03:46;;;;;;;2.93;1.57;;;3.20;99.90;;;;;;5054188;28;20610;-77
2021/04/08 00:06:12;;;;;;;4.03;1.30;;;3.10;99.90;;;;;;5054431;28;20298;-77
2021/04/08 00:08:39;;;;;;;1.57;1.20;;;3.10;99.90;;;;;;5054158;28;20180;-76
2021/04/08 00:11:05;;;;;;;4.03;2.13;;;3.00;99.90;;;;;;5054182;28;20185;-76
2021/04/08 00:13:31;;;;;;;2.17;1.23;;;3.20;99.90;;;;;;5052687;28;20615;-76
2021/04/08 00:15:57;;;;;;;2.93;1.63;;;3.10;99.90;;;;;;5054330;28;20301;-77
2021/04/08 00:18:22;;;;;;;2.00;1.40;;;3.10;99.90;;;;;;5051649;28;20657;-77
2021/04/08 00:20:49;;;;;;;3.37;1.40;;;3.10;99.90;;;;;;5054264;28;20550;-77
2021/04/08 00:23:14;;;;;;;1.83;1.40;;;3.10;99.90;;;;;;5052629;28;20192;-77
2021/04/08 00:25:40;;;;;;;3.23;1.50;;;3.00;99.90;;;;;;5053890;28;20251;-77
2021/04/08 00:28:07;;;;;;;2.80;1.43;;;3.00;99.90;;;;;;5052657;28;20195;-77
2021/04/08 00:30:42;;;;;;;5.33;1.80;;;3.00;99.90;;;;;;5053758;28;20209;-77
2021/04/08 00:33:12;;;;;;;2.73;1.60;;;3.10;99.90;;;;;;5053924;28;20583;-77
2021/04/08 00:35:39;;;;;;;2.70;1.60;;;3.00;99.90;;;;;;5053947;28;20607;-77
2021/04/08 00:38:05;;;;;;;2.67;1.60;;;2.90;99.90;;;;;;5053908;28;20183;-77
2021/04/08 00:40:32;;;;;;;3.90;1.60;;;2.90;99.90;;;;;;5053775;28;20249;-77
2021/04/08 00:42:58;;;;;;;6.17;1.53;;;2.90;99.90;;;;;;5053967;28;20520;-77
2021/04/08 00:45:24;;;;;;;2.40;1.50;;;2.90;99.90;;;;;;5053584;28;20172;-77
2021/04/08 00:47:50;;;;;;;3.33;1.63;;;2.70;99.90;;;;;;5053201;28;20305;-77
2021/04/08 00:50:17;;;;;;;3.23;1.63;;;2.80;99.90;;;;;;5053459;28;20668;-75
2021/04/08 00:52:54;;;;;;;2.47;1.27;;;2.90;99.90;;;;;;5053683;28;20233;-77
2021/04/08 00:55:24;;;;;;;3.07;1.50;;;2.90;99.90;;;;;;5050618;28;20281;-76
2021/04/08 00:57:51;;;;;;;3.70;1.57;;;2.80;99.90;;;;;;5052862;28;20171;-77
2021/04/08 01:00:17;;;;;;;2.90;1.37;;;2.90;99.90;;;;;;5053235;28;20175;-78
2021/04/08 01:02:44;;;;;;;5.00;2.03;;;2.80;99.90;;;;;;5053627;28;20185;-78
2021/04/08 01:05:10;;;;;;;3.00;1.50;;;2.70;99.90;;;;;;5053031;28;20189;-77
2021/04/08 01:07:38;;;;;;;3.03;1.50;;;2.80;99.90;;;;;;5055897;28;20186;-77
2021/04/08 01:10:06;;;;;;;2.73;1.70;;;2.80;99.90;;;;;;5054470;28;20207;-78
2021/04/08 01:12:33;;;;;;;2.63;1.60;;;2.90;99.90;;;;;;5054821;28;20212;-78
2021/04/08 01:14:59;;;;;;;4.07;1.40;;;2.90;99.90;;;;;;5052931;28;20588;-78
2021/04/08 01:17:38;;;;;;;2.57;1.20;;;2.90;99.90;;;;;;5054736;28;20203;-78
2021/04/08 01:20:26;;;;;;;3.80;1.57;;;2.80;99.90;;;;;;5054407;28;20249;-79
2021/04/08 01:22:57;;;;;;;4.13;1.43;;;2.80;99.90;;;;;;5054405;28;20176;-78
2021/04/08 01:25:41;;;;;;;2.97;1.60;;;2.70;99.90;;;;;;5054185;28;20197;-78
2021/04/08 01:28:35;;;;;;;2.50;1.50;;;2.70;99.90;;;;;;5054632;28;20213;-78
2021/04/08 01:31:04;;;;;;;2.63;1.30;;;2.60;99.90;;;;;;5053974;28;20170;-78
2021/04/08 01:34:04;;;;;;;5.00;1.57;;;2.50;99.90;;;;;;5054414;28;20205;-78
2021/04/08 01:36:34;;;;;;;3.00;1.63;;;2.50;99.90;;;;;;5010539;28;20248;-78
2021/04/08 01:39:08;;;;;;;3.07;1.93;;;2.50;99.90;;;;;;5056844;28;20176;-78
2021/04/08 01:41:37;;;;;;;3.20;1.20;;;2.40;99.90;;;;;;5053891;28;20178;-78
2021/04/08 01:44:05;;;;;;;2.57;1.13;;;2.30;99.90;;;;;;5052689;28;20575;-78
2021/04/08 01:46:36;;;;;;;2.80;1.57;;;2.50;99.90;;;;;;5052960;28;20264;-79
2021/04/08 01:49:02;;;;;;;4.27;2.10;;;2.60;99.90;;;;;;5054078;28;20183;-79
2021/04/08 01:51:30;;;;;;;2.80;1.57;;;2.70;99.90;;;;;;5053195;28;20199;-79
2021/04/08 01:53:58;;;;;;;4.97;1.67;;;2.70;99.90;;;;;;5054187;28;20241;-79
2021/04/08 01:56:31;;;;;;;2.40;1.50;;;2.70;99.90;;;;;;5054625;28;20200;-79
2021/04/08 01:58:59;;;;;;;4.70;1.77;;;2.60;99.90;;;;;;5054999;28;20172;-78
2021/04/08 02:01:26;;;;;;;2.60;1.67;;;2.60;99.90;;;;;;5054578;28;20224;-79
2021/04/08 02:03:52;;;;;;;3.43;2.00;;;2.60;99.90;;;;;;5053018;28;20201;-78
2021/04/08 02:06:21;;;;;;;1.63;1.27;;;2.60;99.90;;;;;;5054061;28;20178;-78
2021/04/08 02:08:50;;;;;;;4.43;1.80;;;2.70;99.90;;;;;;5054114;28;20177;-79
2021/04/08 02:11:16;;;;;;;3.07;1.70;;;2.60;99.90;;;;;;5044064;28;20191;-78
2021/04/08 02:13:46;;;;;;;3.67;1.60;;;2.60;99.90;;;;;;5049495;28;20197;-79
2021/04/08 02:16:13;;;;;;;3.07;1.50;;;2.70;99.90;;;;;;5050239;28;20289;-79
2021/04/08 02:18:41;;;;;;;3.10;1.43;;;2.70;99.90;;;;;;5052915;28;20183;-78
2021/04/08 02:21:08;;;;;;;1.77;1.33;;;2.70;99.90;;;;;;5052481;28;20181;-78
2021/04/08 02:23:36;;;;;;;3.77;1.50;;;2.70;99.90;;;;;;5052550;28;20201;-79
2021/04/08 02:26:03;;;;;;;4.57;1.93;;;2.70;99.90;;;;;;5053312;28;20185;-78
2021/04/08 02:28:33;;;;;;;5.10;1.37;;;2.80;99.90;;;;;;5052559;28;20219;-78
2021/04/08 02:30:59;;;;;;;2.73;1.80;;;2.90;99.90;;;;;;5054095;28;20194;-79
2021/04/08 02:33:30;;;;;;;5.70;1.57;;;2.90;99.90;;;;;;5051938;28;20198;-78
2021/04/08 02:35:58;;;;;;;2.77;1.53;;;2.80;99.90;;;;;;5053557;28;20292;-78
2021/04/08 02:38:26;;;;;;;3.80;1.87;;;2.70;99.90;;;;;;5051568;28;20180;-79
2021/04/08 02:40:52;;;;;;;4.77;1.80;;;2.80;99.90;;;;;;5049799;28;20623;-79
2021/04/08 02:43:19;;;;;;;3.93;1.90;;;2.90;99.90;;;;;;5053629;28;20270;-78
2021/04/08 02:45:45;;;;;;;3.23;1.80;;;2.80;99.90;;;;;;5055999;28;20254;-79
2021/04/08 02:48:13;;;;;;;4.80;2.20;;;2.80;99.90;;;;;;5056338;28;20203;-79
2021/04/08 02:50:41;;;;;;;3.80;1.70;;;2.90;99.90;;;;;;5056479;28;20203;-78
2021/04/08 02:53:16;;;;;;;3.27;1.50;;;2.90;99.90;;;;;;5041206;28;20331;-79
2021/04/08 02:55:46;;;;;;;2.50;1.43;;;3.00;99.90;;;;;;5054802;28;20561;-78
2021/04/08 02:58:15;;;;;;;4.37;1.97;;;3.10;99.90;;;;;;5055904;28;20172;-79
2021/04/08 03:01:04;;;;;;;4.20;2.00;;;2.90;99.90;;;;;;5056551;28;20646;-78
2021/04/08 03:03:45;;;;;;;5.20;1.93;;;2.90;99.90;;;;;;5042335;28;20218;-78
2021/04/08 03:06:12;;;;;;;2.40;1.53;;;2.90;99.90;;;;;;5055005;28;20216;-79
2021/04/08 03:08:44;;;;;;;3.10;1.70;;;2.80;99.90;;;;;;5056536;28;20174;-79
2021/04/08 03:11:12;;;;;;;1.57;1.30;;;2.70;99.90;;;;;;5056481;28;20216;-78
2021/04/08 03:13:41;;;;;;;3.90;1.50;;;2.80;99.90;;;;;;5058925;28;20190;-78
2021/04/08 03:16:13;;;;;;;2.00;1.60;;;2.80;99.90;;;;;;5056539;28;20198;-78
2021/04/08 03:18:41;;;;;;;4.17;1.77;;;2.80;99.90;;;;;;5057034;28;20250;-78
2021/04/08 03:21:08;;;;;;;4.10;1.50;;;2.90;99.90;;;;;;5059107;28;20284;-78
2021/04/08 03:23:35;;;;;;;3.23;1.57;;;2.80;99.90;;;;;;5055415;28;20197;-78
2021/04/08 03:26:04;;;;;;;1.97;1.47;;;2.70;99.90;;;;;;5055941;28;20181;-78
2021/04/08 03:28:31;;;;;;;4.57;1.90;;;2.70;99.90;;;;;;5058267;28;20179;-79
2021/04/08 03:31:02;;;;;;;10.23;1.73;;;2.70;99.90;;;;;;5056142;28;20179;-79
2021/04/08 03:33:30;;;;;;;5.30;2.00;;;2.60;99.90;;;;;;5056395;28;20186;-79
2021/04/08 03:35:56;;;;;;;1.70;1.50;;;2.50;99.90;;;;;;5055798;28;20249;-79
2021/04/08 03:38:22;;;;;;;4.30;1.90;;;2.50;99.90;;;;;;5056118;28;20175;-79
2021/04/08 03:40:47;;;;;;;4.97;2.00;;;2.50;99.90;;;;;;5055940;28;20189;-78
2021/04/08 03:43:14;;;;;;;4.30;2.00;;;2.60;99.90;;;;;;5054903;28;20573;-79
2021/04/08 03:45:41;;;;;;;2.47;1.80;;;2.50;99.90;;;;;;5056587;28;20177;-78
2021/04/08 03:48:12;;;;;;;3.23;1.80;;;2.40;99.90;;;;;;5054534;28;20199;-78
2021/04/08 03:50:38;;;;;;;2.83;1.50;;;2.30;99.90;;;;;;5055998;28;20190;-79
2021/04/08 03:53:05;;;;;;;3.63;1.70;;;2.40;99.90;;;;;;5055325;28;20655;-79
2021/04/08 03:55:33;;;;;;;2.90;1.60;;;2.40;99.90;;;;;;5056083;28;20292;-79
2021/04/08 03:58:03;;;;;;;5.73;2.00;;;2.30;99.90;;;;;;5054906;28;20617;-79
2021/04/08 04:00:29;;;;;;;3.13;1.70;;;2.40;99.90;;;;;;5053828;28;20211;-80
2021/04/08 04:02:55;;;;;;;2.00;1.43;;;2.50;99.90;;;;;;5050455;28;20180;-79
2021/04/08 04:05:22;;;;;;;5.63;1.70;;;2.50;99.90;;;;;;5052743;28;20559;-78
2021/04/08 04:07:50;;;;;;;3.77;1.80;;;2.40;99.90;;;;;;5056119;28;20182;-79
2021/04/08 04:10:21;;;;;;;5.13;1.60;;;2.30;99.90;;;;;;5057617;28;20194;-79
2021/04/08 04:12:51;;;;;;;3.37;1.90;;;2.20;99.90;;;;;;5062642;28;20197;-78
2021/04/08 04:15:19;;;;;;;3.20;1.90;;;2.10;99.90;;;;;;5066388;28;20220;-79
2021/04/08 04:17:45;;;;;;;2.30;1.70;;;2.10;99.90;;;;;;5062699;28;20293;-78
2021/04/08 04:20:12;;;;;;;2.00;1.67;;;2.10;99.90;;;;;;5056003;28;20217;-78
2021/04/08 04:22:39;;;;;;;2.60;1.57;;;2.10;99.90;;;;;;5057276;28;20176;-77
2021/04/08 04:25:07;;;;;;;2.17;1.83;;;2.10;99.90;;;;;;5055760;28;20271;-78
2021/04/08 04:27:33;;;;;;;3.90;1.90;;;2.10;99.90;;;;;;5042484;28;20647;-78
2021/04/08 04:29:59;;;;;;;3.93;1.80;;;2.20;99.90;;;;;;5056340;28;20201;-77
2021/04/08 04:32:24;;;;;;;3.53;1.80;;;2.20;99.90;;;;;;5056455;28;20187;-78
2021/04/08 04:34:50;;;;;;;2.43;1.67;;;2.20;99.90;;;;;;5056174;28;20718;-79
2021/04/08 04:37:16;;;;;;;2.43;1.60;;;2.10;99.90;;;;;;5055107;28;20197;-77
2021/04/08 04:39:44;;;;;;;4.40;1.83;;;2.10;99.90;;;;;;5049150;28;20178;-78
2021/04/08 04:42:10;;;;;;;2.20;1.73;;;2.10;99.90;;;;;;5038882;28;20191;-78
2021/04/08 04:44:38;;;;;;;2.67;1.87;;;2.10;99.90;;;;;;5036060;28;20196;-79
2021/04/08 04:47:04;;;;;;;3.13;2.03;;;2.20;99.90;;;;;;5051383;28;20187;-80
2021/04/08 04:49:30;;;;;;;3.47;1.60;;;2.10;99.90;;;;;;5049969;28;20253;-78
2021/04/08 04:51:56;;;;;;;3.30;1.73;;;2.10;99.90;;;;;;5055826;28;20311;-78
2021/04/08 04:54:21;;;;;;;6.97;2.00;;;2.20;99.90;;;;;;5055373;28;20252;-78
2021/04/08 04:56:48;;;;;;;3.47;1.60;;;2.10;99.90;;;;;;5053285;28;20198;-77
2021/04/08 04:59:15;;;;;;;3.33;1.97;;;2.20;99.90;;;;;;5050249;28;20193;-77
2021/04/08 05:01:40;;;;;;;4.00;1.67;;;2.10;99.90;;;;;;5053335;28;20641;-78
2021/04/08 05:04:06;;;;;;;3.73;1.83;;;2.10;99.90;;;;;;5054016;28;20256;-77
2021/04/08 05:06:32;;;;;;;2.73;1.67;;;2.20;99.90;;;;;;5050947;28;20190;-77
2021/04/08 05:08:58;;;;;;;4.00;1.60;;;2.30;99.90;;;;;;5054654;28;20192;-78
2021/04/08 05:11:24;;;;;;;2.03;1.50;;;2.20;99.90;;;;;;5054248;28;20186;-77
2021/04/08 05:13:50;;;;;;;4.53;2.10;;;2.20;99.90;;;;;;5058159;28;20198;-77
2021/04/08 05:16:16;;;;;;;3.13;1.90;;;2.10;99.90;;;;;;5053645;28;20580;-77
2021/04/08 05:18:42;;;;;;;2.03;1.60;;;2.10;99.90;;;;;;5053372;28;20188;-78
2021/04/08 05:21:08;;;;;;;2.30;1.60;;;2.10;99.90;;;;;;5055536;28;20183;-77
2021/04/08 05:23:36;;;;;;;4.43;2.00;;;2.10;99.90;;;;;;5055801;28;20254;-78
2021/04/08 05:26:02;;;;;;;5.27;2.20;;;2.30;99.90;;;;;;5055142;28;20197;-77
2021/04/08 05:28:28;;;;;;;3.30;1.60;;;2.30;99.90;;;;;;5053871;28;20535;-77
2021/04/08 05:30:54;;;;;;;3.87;1.70;;;2.40;99.90;;;;;;5054760;28;20185;-77
2021/04/08 05:33:20;;;;;;;3.80;1.80;;;2.30;99.90;;;;;;5050982;28;20209;-78
2021/04/08 05:35:45;;;;;;;5.93;2.50;;;2.40;99.90;;;;;;5054533;28;20676;-78
2021/04/08 05:38:12;;;;;;;5.27;2.03;;;2.30;99.90;;;;;;5054581;28;20265;-78
2021/04/08 05:40:38;;;;;;;4.90;2.00;;;2.30;99.90;;;;;;5054298;28;20176;-78
2021/04/08 05:43:04;;;;;;;5.33;2.20;;;2.30;99.90;;;;;;5054764;28;20538;-77
2021/04/08 05:45:31;;;;;;;5.83;2.33;;;2.20;99.90;;;;;;5052171;28;20182;-78
2021/04/08 05:47:57;;;;;;;8.10;2.20;;;2.30;99.90;;;;;;5054494;28;20189;-77
2021/04/08 05:50:24;;;;;;;5.37;2.10;;;2.20;99.90;;;;;;5055355;28;20288;-77
2021/04/08 05:52:49;;;;;;;3.90;1.70;;;2.20;99.90;;;;;;5054952;28;20228;-77
2021/04/08 05:55:15;;;;;;;6.17;2.17;;;2.20;99.90;;;;;;5150199;22;20648;-78
2021/04/08 05:57:41;;;;;;;2.87;1.90;;;2.20;99.90;;;;;;5052418;28;20694;-78
2021/04/08 06:00:10;;;;;;;3.83;1.97;;;2.20;99.90;;;;;;5035623;28;20175;-78
2021/04/08 06:02:36;;;;;;;4.67;1.97;;;2.10;99.90;;;;;;5039971;28;20257;-78
2021/04/08 06:05:04;;;;;;;6.00;1.80;;;2.10;99.90;;;;;;5052915;28;20672;-78
2021/04/08 06:07:31;;;;;;;2.60;1.80;;;2.20;99.90;;;;;;5054416;28;20179;-77
2021/04/08 06:09:57;;;;;;;3.93;1.83;;;2.10;99.90;;;;;;5053189;28;20186;-78
2021/04/08 06:12:23;;;;;;;5.83;2.23;;;2.20;99.90;;;;;;5054285;28;20196;-77
2021/04/08 06:14:50;;;;;;;2.63;1.63;;;2.20;99.90;;;;;;5049081;28;20558;-78
2021/04/08 06:17:16;;;;;;;2.63;1.70;;;2.20;99.90;;;;;;5056804;28;20212;-78
2021/04/08 06:19:43;;;;;;;2.07;1.60;;;2.30;99.90;;;;;;5058637;28;20189;-77
2021/04/08 06:22:10;;;;;;;3.03;1.90;;;2.40;99.90;;;;;;5058239;28;20180;-78
2021/04/08 06:24:36;;;;;;;5.03;1.73;;;2.40;99.90;;;;;;5056421;28;20198;-78
2021/04/08 06:27:02;;;;;;;2.87;1.93;;;2.40;99.90;;;;;;5057597;28;20267;-78
2021/04/08 06:29:28;;;;;;;5.90;1.90;;;2.40;99.90;;;;;;5040226;28;20184;-77
2021/04/08 06:31:54;;;;;;;4.13;2.13;;;2.40;99.90;;;;;;5032820;28;20752;-76
2021/04/08 06:34:20;;;;;;;4.37;2.10;;;2.40;99.90;;;;;;5036451;28;20314;-77
2021/04/08 06:36:47;;;;;;;6.77;3.00;;;2.40;99.90;;;;;;5030182;28;20200;-77
2021/04/08 06:39:13;;;;;;;4.80;3.47;;;2.50;99.90;;;;;;5037264;28;20178;-76
2021/04/08 06:41:39;;;;;;;6.67;2.53;;;2.50;99.90;;;;;;5041288;28;20175;-76
2021/04/08 06:44:08;;;;;;;6.93;2.67;;;2.60;99.90;;;;;;5033714;28;20185;-76
2021/04/08 06:46:40;;;;;;;5.73;3.00;;;2.60;99.90;;;;;;5028864;28;20181;-77
2021/04/08 06:49:15;;;;;;;7.57;3.13;;;2.60;99.90;;;;;;5035812;28;20188;-77
2021/04/08 06:51:43;;;;;;;5.30;2.67;;;2.70;99.90;;;;;;5029894;28;20179;-77
2021/04/08 06:54:09;;;;;;;4.40;2.23;;;2.80;99.90;;;;;;5039978;28;20254;-79
2021/04/08 06:56:36;;;;;;;5.80;2.43;;;2.60;99.90;;;;;;5026857;28;20718;-78
2021/04/08 06:59:03;;;;;;;3.53;2.20;;;2.50;99.90;;;;;;5039767;28;20182;-77
2021/04/08 07:01:29;;;;;;;3.50;2.20;;;2.50;99.90;;;;;;5034246;28;20179;-77
2021/04/08 07:03:55;;;;;;;4.37;2.60;;;2.60;99.90;;;;;;5032069;28;20186;-77
2021/04/08 07:06:22;;;;;;;6.03;2.30;;;2.70;99.90;;;;;;5026749;28;20186;-78
2021/04/08 07:08:48;;;;;;;2.53;1.97;;;2.70;99.90;;;;;;5033552;28;20585;-77
2021/04/08 07:11:15;;;;;;;4.97;2.10;;;2.70;99.90;;;;;;5036444;28;20196;-78
2021/04/08 07:13:41;;;;;;;4.50;2.40;;;2.80;99.90;;;;;;5032389;28;20192;-77
2021/04/08 07:16:09;;;;;;;4.50;1.80;;;2.90;99.90;;;;;;5029513;28;20209;-78
2021/04/08 07:18:35;;;;;;;4.80;2.30;;;2.70;99.90;;;;;;5053450;28;20743;-77
2021/04/08 07:21:01;;;;;;;4.03;1.90;;;2.70;99.90;;;;;;5030623;28;20187;-77
2021/04/08 07:23:27;;;;;;;4.73;2.43;;;2.80;99.90;;;;;;5032261;28;20170;-78
2021/04/08 07:26:08;;;;;;;2.23;1.77;;;2.90;99.90;;;;;;5034523;28;20571;-78
2021/04/08 07:28:37;;;;;;;3.30;1.87;;;2.90;99.90;;;;;;5037771;28;20257;-77
2021/04/08 07:31:22;;;;;;;3.30;2.10;;;2.90;99.90;;;;;;5036881;28;20201;-77
2021/04/08 07:33:49;;;;;;;4.87;2.30;;;2.90;99.90;;;;;;5024293;28;20241;-77
2021/04/08 07:36:26;;;;;;;4.13;2.03;;;3.10;99.90;;;;;;5026713;28;20573;-78
2021/04/08 07:38:52;;;;;;;6.60;2.20;;;3.10;99.90;;;;;;5039943;28;20168;-77
2021/04/08 07:41:27;;;;;;;2.40;1.43;;;3.30;99.90;;;;;;5027643;28;20242;-77
2021/04/08 07:44:04;;;;;;;4.07;2.27;;;3.40;99.90;;;;;;5038368;28;20179;-77
2021/04/08 07:46:35;;;;;;;4.73;1.90;;;3.40;99.90;;;;;;5027991;28;20550;-78
2021/04/08 07:49:02;;;;;;;4.27;1.60;;;3.50;99.90;;;;;;5039795;28;20211;-79
2021/04/08 07:51:36;;;;;;;5.07;2.20;;;3.60;99.90;;;;;;5021495;28;20206;-79
2021/04/08 07:54:13;;;;;;;3.33;1.70;;;3.70;99.90;;;;;;5047380;28;20217;-78
2021/04/08 07:56:39;;;;;;;2.73;1.90;;;3.70;99.90;;;;;;5022957;28;20229;-78
2021/04/08 07:59:26;;;;;;;4.27;1.97;;;3.80;99.90;;;;;;5035301;28;20228;-78
2021/04/08 08:02:06;;;;;;;3.50;1.63;;;3.80;99.90;;;;;;5021919;28;20169;-79
2021/04/08 08:04:32;;;;;;;2.83;2.20;;;3.80;99.90;;;;;;5028780;28;20207;-77
2021/04/08 08:06:59;;;;;;;3.43;2.07;;;3.90;99.90;;;;;;5030037;28;20278;-77
2021/04/08 08:09:30;;;;;;;4.00;1.80;;;3.90;99.90;;;;;;5030002;28;20188;-79
2021/04/08 08:12:17;;;;;;;8.13;1.90;;;4.00;99.90;;;;;;5028589;28;20188;-78
2021/04/08 08:14:43;;;;;;;3.73;1.90;;;4.20;99.90;;;;;;5024785;28;20212;-77
2021/04/08 08:17:10;;;;;;;6.30;2.03;;;4.30;99.90;;;;;;5035385;28;20206;-78
2021/04/08 08:19:40;;;;;;;2.63;1.93;;;4.40;99.90;;;;;;5033752;28;20187;-78
2021/04/08 08:22:07;;;;;;;3.50;2.27;;;4.40;99.90;;;;;;5027918;28;20172;-78
2021/04/08 08:24:33;;;;;;;5.93;2.27;;;4.50;99.90;;;;;;5054350;28;20253;-77
2021/04/08 08:26:59;;;;;;;5.93;2.20;;;4.60;99.90;;;;;;5053416;28;20184;-78
2021/04/08 08:29:30;;;;;;;3.63;2.23;;;4.60;99.90;;;;;;5054118;28;20711;-77
2021/04/08 08:32:08;;;;;;;5.57;2.77;;;4.60;99.90;;;;;;5055264;28;20167;-78
2021/04/08 08:34:35;;;;;;;2.90;2.23;;;4.80;99.90;;;;;;5054118;28;20280;-78
2021/04/08 08:37:02;;;;;;;3.00;2.07;;;4.90;99.90;;;;;;5055320;28;20199;-77
2021/04/08 08:39:31;;;;;;;4.80;2.30;;;5.10;99.90;;;;;;5037530;28;20171;-77
2021/04/08 08:41:59;;;;;;;3.70;2.50;;;5.20;99.90;;;;;;5025527;28;20174;-78
2021/04/08 08:44:25;;;;;;;3.10;2.10;;;5.20;99.90;;;;;;5034421;28;20204;-79
2021/04/08 08:47:01;;;;;;;2.97;2.43;;;5.30;99.90;;;;;;5038811;28;20181;-79
2021/04/08 08:49:36;;;;;;;3.50;2.33;;;5.40;99.90;;;;;;5024113;28;20655;-78
2021/04/08 08:52:03;;;;;;;5.20;2.63;;;5.50;99.90;;;;;;5033241;28;20189;-77
2021/04/08 08:54:33;;;;;;;4.97;2.37;;;5.50;99.90;;;;;;5031179;28;20239;-75
2021/04/08 08:57:02;;;;;;;2.97;2.57;;;5.60;99.90;;;;;;5033747;28;20199;-77
2021/04/08 08:59:29;;;;;;;3.47;2.40;;;5.70;99.90;;;;;;5028175;28;20220;-74
2021/04/08 09:01:55;;;;;;;3.70;2.50;;;5.70;99.80;;;;;;5026103;28;20181;-76
2021/04/08 09:04:22;;;;;;;5.63;2.83;;;5.70;99.90;;;;;;5036649;28;20206;-77
2021/04/08 09:06:49;;;;;;;3.80;2.47;;;5.80;99.90;;;;;;5029741;28;20173;-78
2021/04/08 09:09:17;;;;;;;4.43;3.00;;;5.90;99.90;;;;;;5037826;28;20216;-77
2021/04/08 09:11:44;;;;;;;5.87;2.60;;;6.00;99.50;;;;;;5029660;28;20178;-77
2021/04/08 09:16:51;;;;;;;5.30;3.37;;;6.00;99.90;;;;;;5116672;22;20223;-78
2021/04/08 09:19:28;;;;;;;3.53;2.40;;;6.20;99.90;;;;;;5012143;28;20261;-78
2021/04/08 09:22:02;;;;;;;4.43;2.60;;;6.20;99.70;;;;;;5004725;28;20253;-78
2021/04/08 09:24:39;;;;;;;3.33;2.57;;;6.30;99.10;;;;;;4997720;28;20206;-76
2021/04/08 09:27:08;;;;;;;3.70;2.70;;;6.40;99.20;;;;;;5008683;28;20278;-79
2021/04/08 09:29:34;;;;;;;3.93;2.53;;;6.50;99.00;;;;;;5002173;28;20191;-75
2021/04/08 09:32:25;;;;;;;4.17;2.80;;;6.60;98.10;;;;;;5005706;28;20177;-76
2021/04/08 09:35:17;;;;;;;3.27;2.70;;;6.60;97.70;;;;;;5004770;28;20734;-76
2021/04/08 09:37:46;;;;;;;4.70;2.80;;;6.70;98.60;;;;;;5006713;28;20191;-75
2021/04/08 09:40:24;;;;;;;3.67;2.57;;;6.90;99.10;;;;;;4999137;28;20175;-75
2021/04/08 09:42:55;;;;;;;4.60;2.93;;;7.10;97.30;;;;;;5009982;28;20170;-77
2021/04/08 09:45:21;;;;;;;4.57;2.77;;;7.20;97.50;;;;;;5003917;28;20645;-76
2021/04/08 09:48:05;;;;;;;4.37;2.97;;;7.30;97.50;;;;;;5007980;28;20230;-76
2021/04/08 09:51:00;;;;;;;4.50;3.00;;;7.40;97.70;;;;;;4998171;28;20213;-76
2021/04/08 09:53:56;;;;;;;7.47;2.70;;;7.50;96.60;;;;;;5006280;28;20206;-77
2021/04/08 09:56:44;;;;;;;3.70;2.53;;;7.50;95.90;;;;;;5002749;28;20215;-78
2021/04/08 09:59:11;;;;;;;3.83;2.33;;;7.80;96.70;;;;;;5010855;28;20190;-78
2021/04/08 10:01:38;;;;;;;3.20;2.90;;;7.90;96.20;;;;;;5008293;28;20186;-76
2021/04/08 10:04:21;;;;;;;3.97;2.27;;;8.00;95.40;;;;;;5010442;28;20179;-76
2021/04/08 10:06:59;;;;;;;2.70;2.17;;;8.10;95.20;;;;;;4998381;28;20183;-77
2021/04/08 10:09:25;;;;;;;5.73;2.80;;;8.30;96.10;;;;;;5011804;28;20779;-77
2021/04/08 10:11:50;;;;;;;3.73;2.23;;;8.40;94.90;;;;;;5013395;28;20259;-76
2021/04/08 10:14:27;;;;;;;4.23;2.50;;;8.10;95.10;;;;;;5013398;28;20199;-76
2021/04/08 10:17:11;;;;;;;3.57;2.10;;;8.40;95.00;;;;;;5011823;28;20261;-77
2021/04/08 10:19:43;;;;;;;3.33;2.60;;;8.40;94.30;;;;;;5012168;28;20183;-76
2021/04/08 10:22:10;;;;;;;3.17;2.70;;;8.30;95.20;;;;;;5013243;28;20585;-76
2021/04/08 10:24:44;;;;;;;3.50;2.40;;;8.30;94.40;;;;;;5013313;28;20676;-76
2021/04/08 10:27:18;;;;;;;3.47;2.00;;;8.10;93.90;;;;;;5013735;28;20675;-76
2021/04/08 10:29:45;;;;;;;2.40;1.93;;;8.10;93.50;;;;;;5012030;28;20314;-76
2021/04/08 10:32:11;;;;;;;2.83;1.97;;;8.10;94.40;;;;;;5013171;28;20176;-76
2021/04/08 10:34:39;;;;;;;4.40;3.43;;;8.00;93.20;;;;;;5012675;28;20278;-77
2021/04/08 10:37:06;;;;;;;4.60;2.70;;;8.10;93.80;;;;;;5006883;28;20206;-76
2021/04/08 10:39:34;;;;;;;4.20;2.60;;;7.90;93.40;;;;;;5000032;28;20184;-75
2021/04/08 10:42:09;;;;;;;2.90;2.60;;;7.90;94.80;;;;;;4999763;28;20234;-75
2021/04/08 10:44:38;;;;;;;4.17;2.73;;;7.90;94.60;;;;;;5002034;28;20677;-76
2021/04/08 10:47:08;;;;;;;2.33;2.13;;;7.80;94.70;;;;;;5005909;28;20282;-77
2021/04/08 10:49:38;;;;;;;4.10;2.60;;;7.60;94.10;;;;;;4998924;28;20194;-76
2021/04/08 10:52:06;;;;;;;2.57;2.33;;;7.50;94.90;;;;;;5000032;28;20552;-76
2021/04/08 10:54:34;;;;;;;5.03;2.53;;;7.70;95.30;;;;;;4994214;28;20207;-76
2021/04/08 10:57:02;;;;;;;3.60;2.53;;;7.80;95.30;;;;;;4996653;28;20356;-77
2021/04/08 10:59:29;;;;;;;3.10;2.60;;;7.90;94.90;;;;;;4995368;28;20654;-76
2021/04/08 11:01:55;;;;;;;4.33;2.63;;;8.00;95.10;;;;;;5005916;28;20180;-76
2021/04/08 11:04:23;;;;;;;2.77;2.17;;;8.30;94.60;;;;;;5012518;28;20257;-76
2021/04/08 11:06:56;;;;;;;3.13;2.47;;;8.20;93.80;;;;;;5010418;28;20190;-77
2021/04/08 11:09:23;;;;;;;3.63;2.70;;;8.20;94.10;;;;;;5009530;28;20263;-77
2021/04/08 11:11:50;;;;;;;3.67;2.40;;;8.20;94.40;;;;;;5011049;28;20183;-76
2021/04/08 11:14:20;;;;;;;3.37;2.60;;;8.10;94.30;;;;;;5009237;28;20216;-75
2021/04/08 11:16:47;;;;;;;4.07;2.57;;;8.10;93.70;;;;;;5010296;28;20238;-76
2021/04/08 11:19:13;;;;;;;2.83;2.20;;;8.20;93.50;;;;;;5013380;28;20594;-76
2021/04/08 11:21:39;;;;;;;5.00;2.40;;;8.20;94.30;;;;;;5009205;28;20194;-76
2021/04/08 11:24:06;;;;;;;8.83;2.63;;;8.30;93.90;;;;;;5012387;28;20186;-77
2021/04/08 11:26:31;;;;;;;2.60;1.87;;;8.40;93.90;;;;;;5008161;28;20172;-76
2021/04/08 11:28:57;;;;;;;4.67;2.67;;;8.50;93.80;;;;;;5006673;28;20651;-76
2021/04/08 11:31:24;;;;;;;3.97;2.73;;;8.50;93.70;;;;;;5012125;28;20199;-76
2021/04/08 11:34:02;;;;;;;4.97;2.57;;;8.50;93.30;;;;;;5008963;28;20210;-76
2021/04/08 11:36:28;;;;;;;2.47;2.27;;;8.60;95.00;;;;;;5011902;28;20227;-77
2021/04/08 11:38:53;;;;;;;2.30;2.10;;;8.60;93.70;;;;;;5012286;28;20181;-76
2021/04/08 11:41:19;;;;;;;3.90;2.20;;;8.70;93.40;;;;;;5009959;28;20699;-76
2021/04/08 11:43:50;;;;;;;3.23;2.53;;;8.80;93.80;;;;;;5007495;28;20596;-76
2021/04/08 11:46:30;;;;;;;3.23;2.57;;;8.70;91.90;;;;;;5006243;28;20647;-76
2021/04/08 11:48:58;;;;;;;3.80;2.60;;;8.70;92.00;;;;;;5007679;28;20666;-76
2021/04/08 11:51:29;;;;;;;3.27;2.43;;;8.70;92.20;;;;;;5005389;28;20196;-76
2021/04/08 11:54:05;;;;;;;2.33;2.13;;;8.60;92.20;;;;;;5012885;28;20243;-76
2021/04/08 11:56:32;;;;;;;5.17;2.67;;;8.70;92.00;;;;;;5009052;28;20220;-76
2021/04/08 11:59:16;;;;;;;3.10;2.80;;;8.80;92.80;;;;;;5005400;28;20185;-76
2021/04/08 12:01:47;;;;;;;2.80;2.37;;;8.80;91.60;;;;;;4999844;28;20194;-75
2021/04/08 12:04:15;;;;;;;2.47;2.10;;;8.70;92.70;;;;;;5009413;28;20217;-76
2021/04/08 12:06:43;;;;;;;3.83;2.20;;;8.90;92.80;;;;;;5005385;28;20185;-76
2021/04/08 12:09:09;;;;;;;3.73;2.40;;;9.10;92.20;;;;;;5011476;28;20193;-76
2021/04/08 12:11:53;;;;;;;3.40;2.23;;;9.20;92.60;;;;;;5010600;28;20189;-78
2021/04/08 12:14:19;;;;;;;3.87;2.83;;;9.40;93.00;;;;;;5007669;28;20340;-76
2021/04/08 12:17:09;;;;;;;2.57;2.37;;;9.40;92.00;;;;;;5005028;28;20304;-76
2021/04/08 12:19:37;;;;;;;3.00;2.70;;;9.40;92.50;;;;;;5002133;28;20240;-76
2021/04/08 12:22:09;;;;;;;4.10;2.40;;;9.30;91.80;;;;;;5006832;28;20213;-77
2021/04/08 12:24:36;;;;;;;2.70;2.50;;;9.40;92.40;;;;;;5008201;28;20281;-76
2021/04/08 12:27:01;;;;;;;4.03;2.37;;;9.60;93.00;;;;;;5023228;28;20341;-76
2021/04/08 12:29:27;;;;;;;3.67;2.57;;;9.70;92.70;;;;;;5012535;28;20265;-76
2021/04/08 12:31:56;;;;;;;3.77;2.60;;;9.80;91.40;;;;;;5008350;28;20284;-77
2021/04/08 12:34:23;;;;;;;3.40;2.50;;;9.90;91.80;;;;;;5010305;28;20217;-76
2021/04/08 12:36:50;;;;;;;3.47;2.70;;;10.00;91.10;;;;;;5015636;28;20206;-77
2021/04/08 12:39:16;;;;;;;2.47;2.00;;;9.90;91.40;;;;;;5009624;28;20201;-76
2021/04/08 12:41:43;;;;;;;4.67;2.40;;;10.00;91.30;;;;;;5008676;28;20183;-77
2021/04/08 12:44:09;;;;;;;5.13;2.50;;;10.30;91.50;;;;;;5006053;28;20195;-76
2021/04/08 12:46:34;;;;;;;4.97;2.47;;;10.50;90.20;;;;;;5023754;22;20259;-77
2021/04/08 12:49:01;;;;;;;3.43;2.23;;;10.30;87.80;;;;;;5039807;28;20708;-77
2021/04/08 12:51:27;;;;;;;2.80;2.20;;;10.30;88.60;;;;;;5038651;28;20177;-76
2021/04/08 12:53:53;;;;;;;3.10;2.73;;;10.30;88.40;;;;;;5049207;28;20554;-77
2021/04/08 12:56:19;;;;;;;3.63;2.53;;;10.40;89.20;;;;;;5049087;28;20283;-77
2021/04/08 12:58:46;;;;;;;3.30;2.30;;;10.60;88.30;;;;;;5027146;28;20193;-77
2021/04/08 13:01:11;;;;;;;3.80;2.30;;;10.70;89.90;;;;;;5033388;28;20185;-78
2021/04/08 13:03:37;;;;;;;2.30;2.10;;;10.80;90.00;;;;;;5032003;28;20699;-77
2021/04/08 13:06:03;;;;;;;2.37;1.90;;;10.80;88.00;;;;;;5033952;28;20186;-77
2021/04/08 13:08:29;;;;;;;3.20;2.10;;;10.90;91.30;;;;;;5034176;28;20256;-77
2021/04/08 13:10:55;;;;;;;4.07;2.63;;;10.90;89.10;;;;;;5034203;28;20556;-76